TimeCDT,TemperatureF,Dew PointF,Humidity,Sea Level PressureIn,VisibilityMPH,Wind Direction,Wind SpeedMPH,Gust SpeedMPH,PrecipitationIn,Events,Conditions,WindDirDegrees,DateUTC
1:53 AM,25.0,23.0,92,30.39,10.0,West,4.6,-,N/A,,Scattered Clouds,270,2012-10-12 06:53:00
2:53 AM,27.0,24.1,89,30.40,10.0,West,5.8,-,N/A,,Clear,280,2012-10-12 07:53:00
3:53 AM,24.1,21.9,91,30.41,10.0,WNW,3.5,-,N/A,,Clear,290,2012-10-12 08:53:00
4:53 AM,23.0,21.0,92,30.43,10.0,Calm,Calm,-,N/A,,Clear,0,2012-10-12 09:53:00
5:21 AM,19.4,19.4,100,30.37,2.5,Calm,Calm,-,N/A,,Clear,0,2012-10-12 10:21:00
5:29 AM,21.2,19.4,93,30.37,5.0,Calm,Calm,-,N/A,,Clear,0,2012-10-12 10:29:00
5:53 AM,19.9,18.0,92,30.45,10.0,Calm,Calm,-,N/A,,Clear,0,2012-10-12 10:53:00
6:53 AM,16.0,12.9,88,30.47,10.0,WSW,3.5,-,N/A,,Clear,250,2012-10-12 11:53:00
7:53 AM,23.0,21.0,92,30.48,10.0,West,3.5,-,N/A,,Clear,260,2012-10-12 12:53:00
8:53 AM,30.0,26.1,85,30.49,10.0,West,3.5,-,N/A,,Clear,260,2012-10-12 13:53:00
9:53 AM,34.0,28.0,79,30.49,10.0,Calm,Calm,-,N/A,,Clear,0,2012-10-12 14:53:00
10:53 AM,37.9,24.1,57,30.48,10.0,Variable,3.5,-,N/A,,Clear,0,2012-10-12 15:53:00
11:53 AM,39.9,21.9,49,30.46,10.0,Calm,Calm,-,N/A,,Clear,0,2012-10-12 16:53:00
12:53 PM,42.1,21.0,43,30.43,10.0,SSW,9.2,-,N/A,,Clear,200,2012-10-12 17:53:00
2:53 PM,46.0,17.1,31,30.37,10.0,SW,10.4,-,N/A,,Clear,230,2012-10-12 19:53:00
3:53 PM,46.0,19.0,34,30.36,10.0,South,11.5,23.0,N/A,,Clear,190,2012-10-12 20:53:00
5:53 PM,44.1,18.0,35,30.33,10.0,SSW,5.8,-,N/A,,Clear,210,2012-10-12 22:53:00
6:53 PM,42.1,19.0,40,30.33,10.0,SSW,4.6,-,N/A,,Clear,200,2012-10-12 23:53:00
7:53 PM,41.0,19.9,43,30.30,10.0,South,3.5,-,N/A,,Clear,180,2012-10-13 00:53:00
9:53 PM,36.0,19.9,52,30.25,10.0,SE,4.6,-,N/A,,Clear,130,2012-10-13 02:53:00
10:53 PM,35.1,19.0,52,30.23,10.0,SE,4.6,-,N/A,,Clear,130,2012-10-13 03:53:00
11:53 PM,34.0,18.0,52,30.22,10.0,SE,3.5,-,N/A,,Clear,140,2012-10-13 04:53:00